sensor_id;sensor_type;location;lat;lon;timestamp;P1;durP1;ratioP1;P2;durP2;ratioP2
7971;SDS011;4031;49.758;6.120;2022-07-18T00:00:10;1.27;;;1.07;;
7971;SDS011;4031;49.758;6.120;2022-07-18T00:02:36;2.50;;;1.20;;
7971;SDS011;4031;49.758;6.120;2022-07-18T00:05:02;1.40;;;1.10;;
7971;SDS011;4031;49.758;6.120;2022-07-18T00:07:29;1.03;;;0.80;;
7971;SDS011;4031;49.758;6.120;2022-07-18T00:09:55;2.80;;;1.10;;
7971;SDS011;4031;49.758;6.120;2022-07-18T00:12:21;2.50;;;1.20;;
7971;SDS011;4031;49.758;6.120;2022-07-18T00:14:46;2.40;;;0.93;;
7971;SDS011;4031;49.758;6.120;2022-07-18T00:17:12;4.00;;;1.00;;
7971;SDS011;4031;49.758;6.120;2022-07-18T00:19:38;1.23;;;1.13;;
7971;SDS011;4031;49.758;6.120;2022-07-18T00:22:04;1.30;;;0.90;;
7971;SDS011;4031;49.758;6.120;2022-07-18T00:24:31;1.23;;;1.00;;
7971;SDS011;4031;49.758;6.120;2022-07-18T00:26:57;1.90;;;1.17;;
7971;SDS011;4031;49.758;6.120;2022-07-18T00:29:24;1.73;;;1.00;;
7971;SDS011;4031;49.758;6.120;2022-07-18T00:31:50;1.30;;;1.03;;
7971;SDS011;4031;49.758;6.120;2022-07-18T00:34:16;1.97;;;1.30;;
7971;SDS011;4031;49.758;6.120;2022-07-18T00:36:42;1.43;;;1.00;;
7971;SDS011;4031;49.758;6.120;2022-07-18T00:39:08;1.23;;;1.03;;
7971;SDS011;4031;49.758;6.120;2022-07-18T00:41:34;1.50;;;1.17;;
7971;SDS011;4031;49.758;6.120;2022-07-18T00:43:59;3.30;;;1.10;;
7971;SDS011;4031;49.758;6.120;2022-07-18T00:46:26;2.03;;;1.20;;
7971;SDS011;4031;49.758;6.120;2022-07-18T00:48:53;1.00;;;0.70;;
7971;SDS011;4031;49.758;6.120;2022-07-18T00:51:19;1.20;;;0.90;;
7971;SDS011;4031;49.758;6.120;2022-07-18T00:53:47;2.67;;;1.40;;
7971;SDS011;4031;49.758;6.120;2022-07-18T00:56:16;2.07;;;1.30;;
7971;SDS011;4031;49.758;6.120;2022-07-18T00:58:44;2.87;;;1.40;;
7971;SDS011;4031;49.758;6.120;2022-07-18T01:01:11;1.23;;;1.13;;
7971;SDS011;4031;49.758;6.120;2022-07-18T01:03:56;1.67;;;1.00;;
7971;SDS011;4031;49.758;6.120;2022-07-18T01:06:21;2.00;;;1.73;;
7971;SDS011;4031;49.758;6.120;2022-07-18T01:08:47;1.23;;;0.97;;
7971;SDS011;4031;49.758;6.120;2022-07-18T01:11:13;1.30;;;0.80;;
7971;SDS011;4031;49.758;6.120;2022-07-18T01:13:39;1.30;;;1.00;;
7971;SDS011;4031;49.758;6.120;2022-07-18T01:16:06;1.60;;;0.80;;
7971;SDS011;4031;49.758;6.120;2022-07-18T01:18:32;1.23;;;0.90;;
7971;SDS011;4031;49.758;6.120;2022-07-18T01:20:58;1.83;;;0.90;;
7971;SDS011;4031;49.758;6.120;2022-07-18T01:23:24;1.40;;;1.00;;
7971;SDS011;4031;49.758;6.120;2022-07-18T01:25:50;1.37;;;1.20;;
7971;SDS011;4031;49.758;6.120;2022-07-18T01:28:16;3.00;;;1.40;;
7971;SDS011;4031;49.758;6.120;2022-07-18T01:30:42;2.40;;;1.30;;
7971;SDS011;4031;49.758;6.120;2022-07-18T01:33:08;2.30;;;1.23;;
7971;SDS011;4031;49.758;6.120;2022-07-18T01:35:34;1.97;;;1.20;;
7971;SDS011;4031;49.758;6.120;2022-07-18T01:38:00;1.73;;;1.00;;
7971;SDS011;4031;49.758;6.120;2022-07-18T01:40:27;1.60;;;1.10;;
7971;SDS011;4031;49.758;6.120;2022-07-18T01:42:53;2.30;;;0.97;;
7971;SDS011;4031;49.758;6.120;2022-07-18T01:45:20;1.23;;;0.93;;
7971;SDS011;4031;49.758;6.120;2022-07-18T01:47:46;1.50;;;1.00;;
7971;SDS011;4031;49.758;6.120;2022-07-18T01:50:13;2.37;;;1.53;;
7971;SDS011;4031;49.758;6.120;2022-07-18T01:52:40;2.57;;;1.37;;
7971;SDS011;4031;49.758;6.120;2022-07-18T01:55:06;2.73;;;1.30;;
7971;SDS011;4031;49.758;6.120;2022-07-18T01:57:34;1.53;;;1.23;;
7971;SDS011;4031;49.758;6.120;2022-07-18T02:00:00;2.13;;;1.00;;
7971;SDS011;4031;49.758;6.120;2022-07-18T02:02:26;1.47;;;1.07;;
7971;SDS011;4031;49.758;6.120;2022-07-18T02:04:52;1.60;;;1.30;;
7971;SDS011;4031;49.758;6.120;2022-07-18T02:07:29;3.67;;;1.43;;
7971;SDS011;4031;49.758;6.120;2022-07-18T02:10:05;3.27;;;1.60;;
7971;SDS011;4031;49.758;6.120;2022-07-18T02:12:37;1.67;;;1.03;;
7971;SDS011;4031;49.758;6.120;2022-07-18T02:15:05;4.40;;;1.27;;
7971;SDS011;4031;49.758;6.120;2022-07-18T02:17:32;1.60;;;1.17;;
7971;SDS011;4031;49.758;6.120;2022-07-18T02:19:58;1.93;;;1.30;;
7971;SDS011;4031;49.758;6.120;2022-07-18T02:22:24;2.03;;;1.37;;
7971;SDS011;4031;49.758;6.120;2022-07-18T02:24:51;3.77;;;1.57;;
7971;SDS011;4031;49.758;6.120;2022-07-18T02:27:17;2.40;;;1.47;;
7971;SDS011;4031;49.758;6.120;2022-07-18T02:29:43;1.50;;;1.20;;
7971;SDS011;4031;49.758;6.120;2022-07-18T02:32:09;1.83;;;1.00;;
7971;SDS011;4031;49.758;6.120;2022-07-18T02:34:35;1.27;;;1.10;;
7971;SDS011;4031;49.758;6.120;2022-07-18T02:37:01;1.87;;;1.50;;
7971;SDS011;4031;49.758;6.120;2022-07-18T02:39:28;2.10;;;1.27;;
7971;SDS011;4031;49.758;6.120;2022-07-18T02:41:54;2.07;;;1.33;;
7971;SDS011;4031;49.758;6.120;2022-07-18T02:44:20;3.00;;;1.60;;
7971;SDS011;4031;49.758;6.120;2022-07-18T02:46:46;3.87;;;1.57;;
7971;SDS011;4031;49.758;6.120;2022-07-18T02:49:13;2.37;;;1.67;;
7971;SDS011;4031;49.758;6.120;2022-07-18T02:51:52;1.90;;;1.60;;
7971;SDS011;4031;49.758;6.120;2022-07-18T02:54:19;2.10;;;1.30;;
7971;SDS011;4031;49.758;6.120;2022-07-18T02:56:45;1.97;;;1.40;;
7971;SDS011;4031;49.758;6.120;2022-07-18T02:59:11;2.97;;;1.80;;
7971;SDS011;4031;49.758;6.120;2022-07-18T03:01:37;3.10;;;1.70;;
7971;SDS011;4031;49.758;6.120;2022-07-18T03:04:03;2.20;;;1.30;;
7971;SDS011;4031;49.758;6.120;2022-07-18T03:06:29;2.40;;;1.30;;
7971;SDS011;4031;49.758;6.120;2022-07-18T03:08:54;1.87;;;1.20;;
7971;SDS011;4031;49.758;6.120;2022-07-18T03:11:20;2.23;;;1.20;;
7971;SDS011;4031;49.758;6.120;2022-07-18T03:13:46;2.87;;;1.93;;
7971;SDS011;4031;49.758;6.120;2022-07-18T03:16:11;1.60;;;1.40;;
7971;SDS011;4031;49.758;6.120;2022-07-18T03:18:38;1.77;;;1.53;;
7971;SDS011;4031;49.758;6.120;2022-07-18T03:21:04;3.10;;;1.40;;
7971;SDS011;4031;49.758;6.120;2022-07-18T03:23:29;3.93;;;2.10;;
7971;SDS011;4031;49.758;6.120;2022-07-18T03:25:55;2.07;;;1.43;;
7971;SDS011;4031;49.758;6.120;2022-07-18T03:28:21;3.13;;;1.40;;
7971;SDS011;4031;49.758;6.120;2022-07-18T03:30:47;1.73;;;1.53;;
7971;SDS011;4031;49.758;6.120;2022-07-18T03:33:12;2.40;;;2.07;;
7971;SDS011;4031;49.758;6.120;2022-07-18T03:35:38;3.23;;;1.57;;
7971;SDS011;4031;49.758;6.120;2022-07-18T03:38:04;2.83;;;1.30;;
7971;SDS011;4031;49.758;6.120;2022-07-18T03:40:30;2.63;;;1.43;;
7971;SDS011;4031;49.758;6.120;2022-07-18T03:42:56;3.43;;;1.23;;
7971;SDS011;4031;49.758;6.120;2022-07-18T03:45:22;2.57;;;1.60;;
7971;SDS011;4031;49.758;6.120;2022-07-18T03:47:47;1.90;;;1.10;;
7971;SDS011;4031;49.758;6.120;2022-07-18T03:50:13;1.80;;;1.40;;
7971;SDS011;4031;49.758;6.120;2022-07-18T03:52:39;2.40;;;1.50;;
7971;SDS011;4031;49.758;6.120;2022-07-18T03:55:05;1.30;;;0.97;;
7971;SDS011;4031;49.758;6.120;2022-07-18T03:57:32;2.00;;;1.30;;
7971;SDS011;4031;49.758;6.120;2022-07-18T03:59:58;2.50;;;1.57;;
7971;SDS011;4031;49.758;6.120;2022-07-18T04:02:23;1.80;;;1.67;;
7971;SDS011;4031;49.758;6.120;2022-07-18T04:04:49;3.47;;;2.07;;
7971;SDS011;4031;49.758;6.120;2022-07-18T04:07:15;2.40;;;1.30;;
7971;SDS011;4031;49.758;6.120;2022-07-18T04:09:40;2.00;;;1.40;;
7971;SDS011;4031;49.758;6.120;2022-07-18T04:12:06;1.70;;;1.43;;
7971;SDS011;4031;49.758;6.120;2022-07-18T04:14:32;1.97;;;1.50;;
7971;SDS011;4031;49.758;6.120;2022-07-18T04:16:58;2.07;;;1.47;;
7971;SDS011;4031;49.758;6.120;2022-07-18T04:19:23;3.93;;;1.97;;
7971;SDS011;4031;49.758;6.120;2022-07-18T04:21:50;5.67;;;1.80;;
7971;SDS011;4031;49.758;6.120;2022-07-18T04:24:15;4.07;;;1.93;;
7971;SDS011;4031;49.758;6.120;2022-07-18T04:26:41;4.43;;;1.70;;
7971;SDS011;4031;49.758;6.120;2022-07-18T04:29:07;6.70;;;1.83;;
7971;SDS011;4031;49.758;6.120;2022-07-18T04:31:33;2.23;;;1.40;;
7971;SDS011;4031;49.758;6.120;2022-07-18T04:33:59;4.90;;;1.47;;
7971;SDS011;4031;49.758;6.120;2022-07-18T04:36:25;2.30;;;1.60;;
7971;SDS011;4031;49.758;6.120;2022-07-18T04:38:51;2.03;;;1.63;;
7971;SDS011;4031;49.758;6.120;2022-07-18T04:41:16;2.73;;;1.83;;
7971;SDS011;4031;49.758;6.120;2022-07-18T04:43:44;2.77;;;2.00;;
7971;SDS011;4031;49.758;6.120;2022-07-18T04:46:10;3.27;;;2.10;;
7971;SDS011;4031;49.758;6.120;2022-07-18T04:48:36;3.90;;;2.10;;
7971;SDS011;4031;49.758;6.120;2022-07-18T04:51:03;1.83;;;1.20;;
7971;SDS011;4031;49.758;6.120;2022-07-18T04:53:29;2.30;;;1.70;;
7971;SDS011;4031;49.758;6.120;2022-07-18T04:55:55;3.33;;;2.00;;
7971;SDS011;4031;49.758;6.120;2022-07-18T04:58:21;1.77;;;1.23;;
7971;SDS011;4031;49.758;6.120;2022-07-18T05:00:46;3.80;;;2.20;;
7971;SDS011;4031;49.758;6.120;2022-07-18T05:03:13;2.50;;;1.47;;
7971;SDS011;4031;49.758;6.120;2022-07-18T05:05:39;3.67;;;1.50;;
7971;SDS011;4031;49.758;6.120;2022-07-18T05:08:05;2.90;;;2.10;;
7971;SDS011;4031;49.758;6.120;2022-07-18T05:10:32;2.50;;;2.10;;
7971;SDS011;4031;49.758;6.120;2022-07-18T05:12:58;2.57;;;2.00;;
7971;SDS011;4031;49.758;6.120;2022-07-18T05:15:25;3.60;;;1.50;;
7971;SDS011;4031;49.758;6.120;2022-07-18T05:17:52;4.70;;;1.80;;
7971;SDS011;4031;49.758;6.120;2022-07-18T05:20:19;2.63;;;1.80;;
7971;SDS011;4031;49.758;6.120;2022-07-18T05:22:46;2.20;;;1.77;;
7971;SDS011;4031;49.758;6.120;2022-07-18T05:25:12;3.43;;;1.53;;
7971;SDS011;4031;49.758;6.120;2022-07-18T05:27:39;2.60;;;1.97;;
7971;SDS011;4031;49.758;6.120;2022-07-18T05:30:07;3.80;;;1.70;;
7971;SDS011;4031;49.758;6.120;2022-07-18T05:32:35;2.00;;;1.80;;
7971;SDS011;4031;49.758;6.120;2022-07-18T05:35:02;2.60;;;2.10;;
7971;SDS011;4031;49.758;6.120;2022-07-18T05:37:28;4.43;;;1.97;;
7971;SDS011;4031;49.758;6.120;2022-07-18T05:39:54;2.00;;;1.80;;
7971;SDS011;4031;49.758;6.120;2022-07-18T05:42:20;1.93;;;1.70;;
7971;SDS011;4031;49.758;6.120;2022-07-18T05:44:45;3.10;;;2.13;;
7971;SDS011;4031;49.758;6.120;2022-07-18T05:47:11;2.70;;;1.90;;
7971;SDS011;4031;49.758;6.120;2022-07-18T05:49:38;5.10;;;2.63;;
7971;SDS011;4031;49.758;6.120;2022-07-18T05:52:05;2.70;;;2.30;;
7971;SDS011;4031;49.758;6.120;2022-07-18T05:54:31;4.03;;;2.50;;
7971;SDS011;4031;49.758;6.120;2022-07-18T05:56:57;2.47;;;1.70;;
7971;SDS011;4031;49.758;6.120;2022-07-18T05:59:23;2.10;;;1.53;;
7971;SDS011;4031;49.758;6.120;2022-07-18T06:01:49;3.97;;;1.93;;
7971;SDS011;4031;49.758;6.120;2022-07-18T06:04:14;3.80;;;1.63;;
7971;SDS011;4031;49.758;6.120;2022-07-18T06:06:40;3.80;;;2.67;;
7971;SDS011;4031;49.758;6.120;2022-07-18T06:09:06;2.23;;;1.70;;
7971;SDS011;4031;49.758;6.120;2022-07-18T06:11:33;3.60;;;2.10;;
7971;SDS011;4031;49.758;6.120;2022-07-18T06:13:59;2.83;;;1.70;;
7971;SDS011;4031;49.758;6.120;2022-07-18T06:16:27;2.20;;;1.80;;
7971;SDS011;4031;49.758;6.120;2022-07-18T06:18:54;2.60;;;1.77;;
7971;SDS011;4031;49.758;6.120;2022-07-18T06:21:21;1.53;;;1.40;;
7971;SDS011;4031;49.758;6.120;2022-07-18T06:23:47;5.37;;;1.90;;
7971;SDS011;4031;49.758;6.120;2022-07-18T06:26:12;2.10;;;1.60;;
7971;SDS011;4031;49.758;6.120;2022-07-18T06:28:38;2.67;;;1.67;;
7971;SDS011;4031;49.758;6.120;2022-07-18T06:31:04;2.30;;;1.73;;
7971;SDS011;4031;49.758;6.120;2022-07-18T06:33:30;2.03;;;1.83;;
7971;SDS011;4031;49.758;6.120;2022-07-18T06:35:56;1.43;;;1.30;;
7971;SDS011;4031;49.758;6.120;2022-07-18T06:38:22;6.10;;;1.73;;
7971;SDS011;4031;49.758;6.120;2022-07-18T06:40:48;3.43;;;1.90;;
7971;SDS011;4031;49.758;6.120;2022-07-18T06:43:14;4.70;;;1.93;;
7971;SDS011;4031;49.758;6.120;2022-07-18T06:45:44;6.43;;;2.20;;
7971;SDS011;4031;49.758;6.120;2022-07-18T06:48:15;2.77;;;1.87;;
7971;SDS011;4031;49.758;6.120;2022-07-18T06:50:41;4.70;;;2.00;;
7971;SDS011;4031;49.758;6.120;2022-07-18T06:53:07;2.73;;;1.60;;
7971;SDS011;4031;49.758;6.120;2022-07-18T06:55:33;3.37;;;2.00;;
7971;SDS011;4031;49.758;6.120;2022-07-18T06:57:59;4.90;;;1.97;;
7971;SDS011;4031;49.758;6.120;2022-07-18T07:00:25;6.23;;;1.93;;
7971;SDS011;4031;49.758;6.120;2022-07-18T07:02:51;3.03;;;1.73;;
7971;SDS011;4031;49.758;6.120;2022-07-18T07:05:18;1.77;;;1.67;;
7971;SDS011;4031;49.758;6.120;2022-07-18T07:07:46;2.93;;;1.83;;
7971;SDS011;4031;49.758;6.120;2022-07-18T07:10:13;4.63;;;1.90;;
7971;SDS011;4031;49.758;6.120;2022-07-18T07:12:42;2.17;;;1.90;;
7971;SDS011;4031;49.758;6.120;2022-07-18T07:15:12;4.37;;;1.90;;
7971;SDS011;4031;49.758;6.120;2022-07-18T07:17:39;5.23;;;1.87;;
7971;SDS011;4031;49.758;6.120;2022-07-18T07:20:06;2.93;;;1.40;;
7971;SDS011;4031;49.758;6.120;2022-07-18T07:22:49;9.20;;;1.83;;
7971;SDS011;4031;49.758;6.120;2022-07-18T07:25:18;2.87;;;1.93;;
7971;SDS011;4031;49.758;6.120;2022-07-18T07:27:46;2.53;;;1.40;;
7971;SDS011;4031;49.758;6.120;2022-07-18T07:30:12;2.17;;;1.80;;
7971;SDS011;4031;49.758;6.120;2022-07-18T07:32:40;2.90;;;1.67;;
7971;SDS011;4031;49.758;6.120;2022-07-18T07:35:08;4.00;;;1.80;;
7971;SDS011;4031;49.758;6.120;2022-07-18T07:37:37;2.10;;;1.40;;
7971;SDS011;4031;49.758;6.120;2022-07-18T07:40:04;1.70;;;1.30;;
7971;SDS011;4031;49.758;6.120;2022-07-18T07:42:31;2.53;;;1.60;;
7971;SDS011;4031;49.758;6.120;2022-07-18T07:44:56;1.53;;;1.20;;
7971;SDS011;4031;49.758;6.120;2022-07-18T07:47:22;2.33;;;1.50;;
7971;SDS011;4031;49.758;6.120;2022-07-18T07:49:48;7.23;;;1.30;;
7971;SDS011;4031;49.758;6.120;2022-07-18T07:52:14;2.43;;;1.60;;
7971;SDS011;4031;49.758;6.120;2022-07-18T07:54:41;3.60;;;1.50;;
7971;SDS011;4031;49.758;6.120;2022-07-18T07:57:09;1.73;;;1.40;;
7971;SDS011;4031;49.758;6.120;2022-07-18T07:59:36;4.47;;;1.40;;
7971;SDS011;4031;49.758;6.120;2022-07-18T08:02:01;7.30;;;1.50;;
7971;SDS011;4031;49.758;6.120;2022-07-18T08:04:28;2.10;;;1.30;;
7971;SDS011;4031;49.758;6.120;2022-07-18T08:06:54;2.40;;;1.57;;
7971;SDS011;4031;49.758;6.120;2022-07-18T08:09:19;2.03;;;1.23;;
7971;SDS011;4031;49.758;6.120;2022-07-18T08:11:45;2.97;;;1.40;;
7971;SDS011;4031;49.758;6.120;2022-07-18T08:14:11;3.70;;;1.53;;
7971;SDS011;4031;49.758;6.120;2022-07-18T08:16:37;3.60;;;1.63;;
7971;SDS011;4031;49.758;6.120;2022-07-18T08:19:03;2.10;;;1.27;;
7971;SDS011;4031;49.758;6.120;2022-07-18T08:21:29;1.93;;;1.23;;
7971;SDS011;4031;49.758;6.120;2022-07-18T08:23:55;3.23;;;1.60;;
7971;SDS011;4031;49.758;6.120;2022-07-18T08:26:21;1.83;;;1.40;;
7971;SDS011;4031;49.758;6.120;2022-07-18T08:28:46;5.27;;;1.70;;
7971;SDS011;4031;49.758;6.120;2022-07-18T08:31:12;2.37;;;1.23;;
7971;SDS011;4031;49.758;6.120;2022-07-18T08:33:38;2.33;;;1.40;;
7971;SDS011;4031;49.758;6.120;2022-07-18T08:36:04;2.43;;;1.40;;
7971;SDS011;4031;49.758;6.120;2022-07-18T08:38:32;1.73;;;0.90;;
7971;SDS011;4031;49.758;6.120;2022-07-18T08:40:58;3.47;;;1.60;;
7971;SDS011;4031;49.758;6.120;2022-07-18T08:43:25;3.87;;;1.60;;
7971;SDS011;4031;49.758;6.120;2022-07-18T08:45:54;1.80;;;1.60;;
7971;SDS011;4031;49.758;6.120;2022-07-18T08:48:23;2.07;;;1.47;;
7971;SDS011;4031;49.758;6.120;2022-07-18T08:50:49;1.97;;;1.27;;
7971;SDS011;4031;49.758;6.120;2022-07-18T08:53:15;2.40;;;1.40;;
7971;SDS011;4031;49.758;6.120;2022-07-18T08:55:43;4.23;;;1.60;;
7971;SDS011;4031;49.758;6.120;2022-07-18T08:58:09;2.70;;;1.50;;
7971;SDS011;4031;49.758;6.120;2022-07-18T09:00:37;7.57;;;2.00;;
7971;SDS011;4031;49.758;6.120;2022-07-18T09:03:03;3.70;;;1.70;;
7971;SDS011;4031;49.758;6.120;2022-07-18T09:05:30;3.15;;;1.50;;
7971;SDS011;4031;49.758;6.120;2022-07-18T09:08:13;5.25;;;2.20;;
7971;SDS011;4031;49.758;6.120;2022-07-18T09:10:54;4.88;;;1.67;;
7971;SDS011;4031;49.758;6.120;2022-07-18T09:13:23;2.70;;;1.42;;
7971;SDS011;4031;49.758;6.120;2022-07-18T09:16:06;2.97;;;1.02;;
7971;SDS011;4031;49.758;6.120;2022-07-18T09:18:38;3.63;;;1.40;;
7971;SDS011;4031;49.758;6.120;2022-07-18T09:21:07;8.65;;;1.70;;
7971;SDS011;4031;49.758;6.120;2022-07-18T09:23:38;12.00;;;2.40;;
7971;SDS011;4031;49.758;6.120;2022-07-18T09:26:10;12.18;;;1.88;;
7971;SDS011;4031;49.758;6.120;2022-07-18T09:28:53;4.50;;;1.60;;
7971;SDS011;4031;49.758;6.120;2022-07-18T09:31:22;4.80;;;1.25;;
7971;SDS011;4031;49.758;6.120;2022-07-18T09:33:56;11.60;;;3.90;;
7971;SDS011;4031;49.758;6.120;2022-07-18T09:36:24;2.72;;;1.25;;
7971;SDS011;4031;49.758;6.120;2022-07-18T09:38:52;2.75;;;1.40;;
7971;SDS011;4031;49.758;6.120;2022-07-18T09:41:22;2.00;;;1.15;;
7971;SDS011;4031;49.758;6.120;2022-07-18T09:43:50;3.90;;;1.35;;
7971;SDS011;4031;49.758;6.120;2022-07-18T09:46:16;2.00;;;1.08;;
7971;SDS011;4031;49.758;6.120;2022-07-18T09:48:42;1.15;;;0.98;;
7971;SDS011;4031;49.758;6.120;2022-07-18T09:51:07;1.20;;;0.80;;
7971;SDS011;4031;49.758;6.120;2022-07-18T09:53:41;1.98;;;1.08;;
7971;SDS011;4031;49.758;6.120;2022-07-18T09:56:09;1.55;;;0.85;;
7971;SDS011;4031;49.758;6.120;2022-07-18T09:58:38;3.58;;;1.13;;
7971;SDS011;4031;49.758;6.120;2022-07-18T10:01:06;1.30;;;1.00;;
7971;SDS011;4031;49.758;6.120;2022-07-18T10:03:35;3.63;;;1.02;;
7971;SDS011;4031;49.758;6.120;2022-07-18T10:06:01;1.45;;;1.17;;
7971;SDS011;4031;49.758;6.120;2022-07-18T10:08:29;2.28;;;0.82;;
7971;SDS011;4031;49.758;6.120;2022-07-18T10:10:57;1.60;;;0.60;;
7971;SDS011;4031;49.758;6.120;2022-07-18T10:13:26;1.90;;;1.10;;
7971;SDS011;4031;49.758;6.120;2022-07-18T10:15:54;1.20;;;0.90;;
7971;SDS011;4031;49.758;6.120;2022-07-18T10:18:24;1.83;;;0.90;;
7971;SDS011;4031;49.758;6.120;2022-07-18T10:21:02;3.63;;;1.13;;
7971;SDS011;4031;49.758;6.120;2022-07-18T10:29:12;1.98;;;1.38;;
7971;SDS011;4031;49.758;6.120;2022-07-18T10:31:41;4.97;;;1.25;;
7971;SDS011;4031;49.758;6.120;2022-07-18T10:34:29;5.60;;;1.35;;
7971;SDS011;4031;49.758;6.120;2022-07-18T10:44:34;0.98;;;0.70;;
7971;SDS011;4031;49.758;6.120;2022-07-18T10:57:36;1.92;;;0.98;;
7971;SDS011;4031;49.758;6.120;2022-07-18T11:00:11;1.10;;;0.80;;
7971;SDS011;4031;49.758;6.120;2022-07-18T11:02:43;1.70;;;1.00;;
7971;SDS011;4031;49.758;6.120;2022-07-18T11:16:00;2.78;;;0.70;;
7971;SDS011;4031;49.758;6.120;2022-07-18T11:21:19;2.38;;;1.10;;
7971;SDS011;4031;49.758;6.120;2022-07-18T11:23:58;4.10;;;0.82;;
7971;SDS011;4031;49.758;6.120;2022-07-18T11:26:34;1.95;;;0.90;;
7971;SDS011;4031;49.758;6.120;2022-07-18T11:29:07;2.15;;;1.05;;
7971;SDS011;4031;49.758;6.120;2022-07-18T11:31:48;0.93;;;0.80;;
7971;SDS011;4031;49.758;6.120;2022-07-18T11:34:22;2.47;;;1.23;;
7971;SDS011;4031;49.758;6.120;2022-07-18T11:36:50;1.38;;;0.95;;
7971;SDS011;4031;49.758;6.120;2022-07-18T11:39:27;1.90;;;0.90;;
7971;SDS011;4031;49.758;6.120;2022-07-18T11:41:54;2.95;;;1.00;;
7971;SDS011;4031;49.758;6.120;2022-07-18T11:44:20;1.60;;;1.00;;
7971;SDS011;4031;49.758;6.120;2022-07-18T11:47:06;1.38;;;1.05;;
7971;SDS011;4031;49.758;6.120;2022-07-18T11:49:36;5.07;;;0.90;;
7971;SDS011;4031;49.758;6.120;2022-07-18T11:52:03;1.00;;;0.82;;
7971;SDS011;4031;49.758;6.120;2022-07-18T11:54:30;1.48;;;0.93;;
7971;SDS011;4031;49.758;6.120;2022-07-18T11:56:57;1.20;;;0.73;;
7971;SDS011;4031;49.758;6.120;2022-07-18T11:59:34;1.40;;;1.00;;
7971;SDS011;4031;49.758;6.120;2022-07-18T12:02:02;1.90;;;0.90;;
7971;SDS011;4031;49.758;6.120;2022-07-18T12:04:29;1.43;;;1.03;;
7971;SDS011;4031;49.758;6.120;2022-07-18T12:09:50;2.40;;;0.90;;
7971;SDS011;4031;49.758;6.120;2022-07-18T12:12:17;2.60;;;1.17;;
7971;SDS011;4031;49.758;6.120;2022-07-18T12:15:19;3.67;;;1.52;;
7971;SDS011;4031;49.758;6.120;2022-07-18T12:17:45;11.38;;;1.35;;
7971;SDS011;4031;49.758;6.120;2022-07-18T12:20:19;3.10;;;0.90;;
7971;SDS011;4031;49.758;6.120;2022-07-18T12:25:42;2.33;;;1.20;;
7971;SDS011;4031;49.758;6.120;2022-07-18T12:28:12;2.28;;;0.93;;
7971;SDS011;4031;49.758;6.120;2022-07-18T12:30:43;1.92;;;1.15;;
7971;SDS011;4031;49.758;6.120;2022-07-18T12:33:10;1.27;;;1.13;;
7971;SDS011;4031;49.758;6.120;2022-07-18T12:35:37;1.20;;;0.90;;
7971;SDS011;4031;49.758;6.120;2022-07-18T12:40:44;2.33;;;1.13;;
7971;SDS011;4031;49.758;6.120;2022-07-18T12:43:25;1.30;;;1.20;;
7971;SDS011;4031;49.758;6.120;2022-07-18T12:46:02;1.88;;;0.90;;
7971;SDS011;4031;49.758;6.120;2022-07-18T12:48:34;1.88;;;1.35;;
7971;SDS011;4031;49.758;6.120;2022-07-18T12:53:33;1.63;;;0.97;;
7971;SDS011;4031;49.758;6.120;2022-07-18T12:56:01;1.95;;;1.17;;
7971;SDS011;4031;49.758;6.120;2022-07-18T12:58:28;1.48;;;1.08;;
7971;SDS011;4031;49.758;6.120;2022-07-18T13:00:55;1.60;;;0.95;;
7971;SDS011;4031;49.758;6.120;2022-07-18T13:03:21;1.33;;;1.00;;
7971;SDS011;4031;49.758;6.120;2022-07-18T13:05:47;4.72;;;1.10;;
7971;SDS011;4031;49.758;6.120;2022-07-18T13:08:13;2.75;;;0.98;;
7971;SDS011;4031;49.758;6.120;2022-07-18T13:10:40;2.20;;;1.10;;
7971;SDS011;4031;49.758;6.120;2022-07-18T13:13:07;3.25;;;1.27;;
7971;SDS011;4031;49.758;6.120;2022-07-18T13:15:33;3.42;;;0.90;;
7971;SDS011;4031;49.758;6.120;2022-07-18T13:18:00;1.10;;;1.00;;
7971;SDS011;4031;49.758;6.120;2022-07-18T13:20:26;1.13;;;1.00;;
7971;SDS011;4031;49.758;6.120;2022-07-18T13:22:52;2.25;;;0.95;;
7971;SDS011;4031;49.758;6.120;2022-07-18T13:25:18;1.40;;;1.15;;
7971;SDS011;4031;49.758;6.120;2022-07-18T13:27:46;1.33;;;0.85;;
7971;SDS011;4031;49.758;6.120;2022-07-18T13:30:12;1.38;;;1.23;;
7971;SDS011;4031;49.758;6.120;2022-07-18T13:32:38;2.75;;;1.02;;
7971;SDS011;4031;49.758;6.120;2022-07-18T13:35:06;2.90;;;1.27;;
7971;SDS011;4031;49.758;6.120;2022-07-18T13:37:32;2.42;;;1.10;;
7971;SDS011;4031;49.758;6.120;2022-07-18T13:39:58;1.50;;;1.30;;
7971;SDS011;4031;49.758;6.120;2022-07-18T13:42:24;3.20;;;1.05;;
7971;SDS011;4031;49.758;6.120;2022-07-18T13:44:50;2.70;;;1.25;;
7971;SDS011;4031;49.758;6.120;2022-07-18T13:47:16;2.30;;;1.15;;
7971;SDS011;4031;49.758;6.120;2022-07-18T13:49:41;1.73;;;1.58;;
7971;SDS011;4031;49.758;6.120;2022-07-18T13:52:08;1.60;;;1.20;;
7971;SDS011;4031;49.758;6.120;2022-07-18T13:54:34;3.05;;;1.00;;
7971;SDS011;4031;49.758;6.120;2022-07-18T13:57:00;2.10;;;1.13;;
7971;SDS011;4031;49.758;6.120;2022-07-18T13:59:26;1.30;;;1.05;;
7971;SDS011;4031;49.758;6.120;2022-07-18T14:01:51;1.27;;;1.15;;
7971;SDS011;4031;49.758;6.120;2022-07-18T14:04:17;5.65;;;1.17;;
7971;SDS011;4031;49.758;6.120;2022-07-18T14:06:44;2.65;;;1.33;;
7971;SDS011;4031;49.758;6.120;2022-07-18T14:09:10;1.88;;;1.10;;
7971;SDS011;4031;49.758;6.120;2022-07-18T14:11:36;3.30;;;1.50;;
7971;SDS011;4031;49.758;6.120;2022-07-18T14:14:03;1.85;;;1.08;;
7971;SDS011;4031;49.758;6.120;2022-07-18T14:16:30;3.90;;;1.30;;
7971;SDS011;4031;49.758;6.120;2022-07-18T14:18:56;1.67;;;1.17;;
7971;SDS011;4031;49.758;6.120;2022-07-18T14:21:23;0.95;;;0.90;;
7971;SDS011;4031;49.758;6.120;2022-07-18T14:23:49;3.13;;;1.15;;
7971;SDS011;4031;49.758;6.120;2022-07-18T14:26:15;2.45;;;0.98;;
7971;SDS011;4031;49.758;6.120;2022-07-18T14:28:41;1.70;;;1.20;;
7971;SDS011;4031;49.758;6.120;2022-07-18T14:31:07;1.40;;;1.00;;
7971;SDS011;4031;49.758;6.120;2022-07-18T14:33:33;1.95;;;0.98;;
7971;SDS011;4031;49.758;6.120;2022-07-18T14:35:58;4.97;;;0.95;;
7971;SDS011;4031;49.758;6.120;2022-07-18T14:38:24;3.20;;;1.35;;
7971;SDS011;4031;49.758;6.120;2022-07-18T14:40:50;2.35;;;1.08;;
7971;SDS011;4031;49.758;6.120;2022-07-18T14:43:16;0.98;;;0.80;;
7971;SDS011;4031;49.758;6.120;2022-07-18T14:45:42;1.50;;;0.90;;
7971;SDS011;4031;49.758;6.120;2022-07-18T14:48:07;1.20;;;0.90;;
7971;SDS011;4031;49.758;6.120;2022-07-18T14:50:33;1.98;;;1.13;;
7971;SDS011;4031;49.758;6.120;2022-07-18T14:52:59;1.33;;;0.95;;
7971;SDS011;4031;49.758;6.120;2022-07-18T14:55:25;1.52;;;0.88;;
7971;SDS011;4031;49.758;6.120;2022-07-18T14:57:51;1.30;;;1.20;;
7971;SDS011;4031;49.758;6.120;2022-07-18T15:00:16;1.80;;;1.40;;
7971;SDS011;4031;49.758;6.120;2022-07-18T15:02:42;2.10;;;1.17;;
7971;SDS011;4031;49.758;6.120;2022-07-18T15:05:08;2.33;;;1.27;;
7971;SDS011;4031;49.758;6.120;2022-07-18T15:07:35;1.92;;;0.80;;
7971;SDS011;4031;49.758;6.120;2022-07-18T15:10:01;2.30;;;0.90;;
7971;SDS011;4031;49.758;6.120;2022-07-18T15:12:28;0.93;;;0.82;;
7971;SDS011;4031;49.758;6.120;2022-07-18T15:14:54;2.33;;;1.05;;
7971;SDS011;4031;49.758;6.120;2022-07-18T15:17:21;1.90;;;1.00;;
7971;SDS011;4031;49.758;6.120;2022-07-18T15:19:48;0.90;;;0.80;;
7971;SDS011;4031;49.758;6.120;2022-07-18T15:22:13;2.58;;;1.10;;
7971;SDS011;4031;49.758;6.120;2022-07-18T15:24:39;1.00;;;0.90;;
7971;SDS011;4031;49.758;6.120;2022-07-18T15:27:05;2.95;;;0.82;;
7971;SDS011;4031;49.758;6.120;2022-07-18T15:29:31;1.00;;;0.70;;
7971;SDS011;4031;49.758;6.120;2022-07-18T15:31:57;3.53;;;1.02;;
7971;SDS011;4031;49.758;6.120;2022-07-18T15:34:23;4.05;;;1.17;;
7971;SDS011;4031;49.758;6.120;2022-07-18T15:36:50;3.57;;;0.97;;
7971;SDS011;4031;49.758;6.120;2022-07-18T15:39:16;2.60;;;1.30;;
7971;SDS011;4031;49.758;6.120;2022-07-18T15:41:42;2.73;;;1.10;;
7971;SDS011;4031;49.758;6.120;2022-07-18T15:44:08;1.37;;;1.00;;
7971;SDS011;4031;49.758;6.120;2022-07-18T15:46:35;2.10;;;0.90;;
7971;SDS011;4031;49.758;6.120;2022-07-18T15:49:01;2.70;;;1.07;;
7971;SDS011;4031;49.758;6.120;2022-07-18T15:51:28;1.17;;;0.77;;
7971;SDS011;4031;49.758;6.120;2022-07-18T15:53:53;1.60;;;1.20;;
7971;SDS011;4031;49.758;6.120;2022-07-18T15:56:19;2.50;;;1.33;;
7971;SDS011;4031;49.758;6.120;2022-07-18T15:58:45;1.00;;;0.90;;
7971;SDS011;4031;49.758;6.120;2022-07-18T16:01:11;1.83;;;1.00;;
7971;SDS011;4031;49.758;6.120;2022-07-18T16:03:37;2.10;;;1.10;;